sensor_id;sensor_type;location;lat;lon;timestamp;P1;durP1;ratioP1;P2;durP2;ratioP2
63016;SDS011;50274;45.640;11.756;2023-01-24T00:00:06;5.28;;;2.40;;
63016;SDS011;50274;45.640;11.756;2023-01-24T00:02:35;5.47;;;1.93;;
63016;SDS011;50274;45.640;11.756;2023-01-24T00:05:00;4.82;;;1.95;;
63016;SDS011;50274;45.640;11.756;2023-01-24T00:07:26;6.10;;;1.83;;
63016;SDS011;50274;45.640;11.756;2023-01-24T00:09:52;4.57;;;1.57;;
63016;SDS011;50274;45.640;11.756;2023-01-24T00:12:18;5.60;;;2.13;;
63016;SDS011;50274;45.640;11.756;2023-01-24T00:14:44;4.90;;;1.80;;
63016;SDS011;50274;45.640;11.756;2023-01-24T00:17:09;4.22;;;1.42;;
63016;SDS011;50274;45.640;11.756;2023-01-24T00:19:35;5.27;;;2.00;;
63016;SDS011;50274;45.640;11.756;2023-01-24T00:22:02;5.30;;;2.13;;
63016;SDS011;50274;45.640;11.756;2023-01-24T00:24:28;5.60;;;2.20;;
63016;SDS011;50274;45.640;11.756;2023-01-24T00:26:55;4.32;;;1.50;;
63016;SDS011;50274;45.640;11.756;2023-01-24T00:29:21;4.33;;;1.60;;
63016;SDS011;50274;45.640;11.756;2023-01-24T00:31:47;4.03;;;1.58;;
63016;SDS011;50274;45.640;11.756;2023-01-24T00:34:13;5.32;;;1.52;;
63016;SDS011;50274;45.640;11.756;2023-01-24T00:36:38;4.77;;;1.43;;
63016;SDS011;50274;45.640;11.756;2023-01-24T00:39:04;4.75;;;1.83;;
63016;SDS011;50274;45.640;11.756;2023-01-24T00:41:30;6.50;;;2.10;;
63016;SDS011;50274;45.640;11.756;2023-01-24T00:43:56;5.43;;;1.65;;
63016;SDS011;50274;45.640;11.756;2023-01-24T00:46:22;4.97;;;1.65;;
63016;SDS011;50274;45.640;11.756;2023-01-24T00:48:47;4.30;;;1.30;;
63016;SDS011;50274;45.640;11.756;2023-01-24T00:51:13;4.68;;;1.58;;
63016;SDS011;50274;45.640;11.756;2023-01-24T00:53:39;4.67;;;1.50;;
63016;SDS011;50274;45.640;11.756;2023-01-24T00:56:05;4.20;;;1.48;;
63016;SDS011;50274;45.640;11.756;2023-01-24T00:58:32;5.00;;;1.55;;
63016;SDS011;50274;45.640;11.756;2023-01-24T01:00:58;4.50;;;1.55;;
63016;SDS011;50274;45.640;11.756;2023-01-24T01:03:27;3.90;;;1.30;;
63016;SDS011;50274;45.640;11.756;2023-01-24T01:06:03;4.20;;;1.20;;
63016;SDS011;50274;45.640;11.756;2023-01-24T01:08:32;4.05;;;1.20;;
63016;SDS011;50274;45.640;11.756;2023-01-24T01:10:58;5.40;;;1.25;;
63016;SDS011;50274;45.640;11.756;2023-01-24T01:13:25;3.85;;;1.17;;
63016;SDS011;50274;45.640;11.756;2023-01-24T01:15:51;4.37;;;1.23;;
63016;SDS011;50274;45.640;11.756;2023-01-24T01:18:24;3.72;;;1.35;;
63016;SDS011;50274;45.640;11.756;2023-01-24T01:20:50;3.60;;;1.10;;
63016;SDS011;50274;45.640;11.756;2023-01-24T01:23:16;3.80;;;1.00;;
63016;SDS011;50274;45.640;11.756;2023-01-24T01:25:42;3.45;;;1.00;;
63016;SDS011;50274;45.640;11.756;2023-01-24T01:28:08;4.07;;;1.38;;
63016;SDS011;50274;45.640;11.756;2023-01-24T01:30:34;3.60;;;1.05;;
63016;SDS011;50274;45.640;11.756;2023-01-24T01:33:00;3.43;;;1.17;;
63016;SDS011;50274;45.640;11.756;2023-01-24T01:35:25;4.03;;;1.45;;
63016;SDS011;50274;45.640;11.756;2023-01-24T01:37:51;4.00;;;1.27;;
63016;SDS011;50274;45.640;11.756;2023-01-24T01:40:18;4.50;;;1.50;;
63016;SDS011;50274;45.640;11.756;2023-01-24T01:42:54;4.40;;;1.40;;
63016;SDS011;50274;45.640;11.756;2023-01-24T01:45:37;4.00;;;1.58;;
63016;SDS011;50274;45.640;11.756;2023-01-24T01:53:57;4.55;;;1.20;;
63016;SDS011;50274;45.640;11.756;2023-01-24T01:59:17;4.00;;;1.40;;
63016;SDS011;50274;45.640;11.756;2023-01-24T02:01:47;3.85;;;1.40;;
63016;SDS011;50274;45.640;11.756;2023-01-24T02:04:20;4.17;;;1.30;;
63016;SDS011;50274;45.640;11.756;2023-01-24T02:06:52;4.70;;;1.30;;
63016;SDS011;50274;45.640;11.756;2023-01-24T02:09:23;4.70;;;1.70;;
63016;SDS011;50274;45.640;11.756;2023-01-24T02:11:53;5.05;;;1.60;;
63016;SDS011;50274;45.640;11.756;2023-01-24T02:14:22;5.78;;;2.60;;
63016;SDS011;50274;45.640;11.756;2023-01-24T02:17:09;4.50;;;1.70;;
63016;SDS011;50274;45.640;11.756;2023-01-24T02:19:44;4.47;;;1.75;;
63016;SDS011;50274;45.640;11.756;2023-01-24T02:22:38;5.18;;;1.80;;
63016;SDS011;50274;45.640;11.756;2023-01-24T02:25:14;4.63;;;1.92;;
63016;SDS011;50274;45.640;11.756;2023-01-24T02:27:54;4.43;;;1.83;;
63016;SDS011;50274;45.640;11.756;2023-01-24T02:30:20;4.38;;;1.63;;
63016;SDS011;50274;45.640;11.756;2023-01-24T02:32:46;4.03;;;1.40;;
63016;SDS011;50274;45.640;11.756;2023-01-24T02:35:29;4.73;;;1.67;;
63016;SDS011;50274;45.640;11.756;2023-01-24T02:37:57;5.50;;;1.73;;
63016;SDS011;50274;45.640;11.756;2023-01-24T02:40:26;7.07;;;1.80;;
63016;SDS011;50274;45.640;11.756;2023-01-24T02:42:54;4.80;;;1.50;;
63016;SDS011;50274;45.640;11.756;2023-01-24T02:45:26;4.80;;;1.73;;
63016;SDS011;50274;45.640;11.756;2023-01-24T02:47:53;4.33;;;1.63;;
63016;SDS011;50274;45.640;11.756;2023-01-24T02:50:22;4.53;;;1.60;;
63016;SDS011;50274;45.640;11.756;2023-01-24T02:52:49;4.57;;;1.60;;
63016;SDS011;50274;45.640;11.756;2023-01-24T02:55:34;4.90;;;1.80;;
63016;SDS011;50274;45.640;11.756;2023-01-24T02:58:21;3.72;;;1.30;;
63016;SDS011;50274;45.640;11.756;2023-01-24T03:00:47;4.53;;;1.70;;
63016;SDS011;50274;45.640;11.756;2023-01-24T03:03:13;4.55;;;1.60;;
63016;SDS011;50274;45.640;11.756;2023-01-24T03:05:39;4.45;;;1.58;;
63016;SDS011;50274;45.640;11.756;2023-01-24T03:08:22;3.95;;;1.40;;
63016;SDS011;50274;45.640;11.756;2023-01-24T03:10:51;4.20;;;1.47;;
63016;SDS011;50274;45.640;11.756;2023-01-24T03:13:18;4.05;;;1.65;;
63016;SDS011;50274;45.640;11.756;2023-01-24T03:16:03;5.07;;;1.58;;
63016;SDS011;50274;45.640;11.756;2023-01-24T03:18:48;3.60;;;1.38;;
63016;SDS011;50274;45.640;11.756;2023-01-24T03:21:32;3.95;;;1.55;;
63016;SDS011;50274;45.640;11.756;2023-01-24T03:24:17;4.03;;;1.40;;
63016;SDS011;50274;45.640;11.756;2023-01-24T03:27:01;4.43;;;1.52;;
63016;SDS011;50274;45.640;11.756;2023-01-24T03:29:46;6.15;;;1.55;;
63016;SDS011;50274;45.640;11.756;2023-01-24T03:32:30;4.35;;;1.58;;
63016;SDS011;50274;45.640;11.756;2023-01-24T03:35:14;5.10;;;1.38;;
63016;SDS011;50274;45.640;11.756;2023-01-24T03:37:40;5.20;;;1.43;;
63016;SDS011;50274;45.640;11.756;2023-01-24T03:40:24;3.88;;;1.20;;
63016;SDS011;50274;45.640;11.756;2023-01-24T03:42:50;4.13;;;1.30;;
63016;SDS011;50274;45.640;11.756;2023-01-24T03:45:17;4.03;;;1.50;;
63016;SDS011;50274;45.640;11.756;2023-01-24T03:47:49;3.83;;;1.20;;
63016;SDS011;50274;45.640;11.756;2023-01-24T03:50:23;3.80;;;1.20;;
63016;SDS011;50274;45.640;11.756;2023-01-24T03:53:09;4.35;;;1.30;;
63016;SDS011;50274;45.640;11.756;2023-01-24T03:55:35;3.80;;;1.20;;
63016;SDS011;50274;45.640;11.756;2023-01-24T03:58:02;5.00;;;1.63;;
63016;SDS011;50274;45.640;11.756;2023-01-24T04:00:29;4.78;;;1.50;;
63016;SDS011;50274;45.640;11.756;2023-01-24T04:02:55;4.75;;;1.70;;
63016;SDS011;50274;45.640;11.756;2023-01-24T04:05:20;4.38;;;1.52;;
63016;SDS011;50274;45.640;11.756;2023-01-24T04:07:47;4.53;;;1.20;;
63016;SDS011;50274;45.640;11.756;2023-01-24T04:10:13;4.93;;;1.55;;
63016;SDS011;50274;45.640;11.756;2023-01-24T04:12:39;3.88;;;1.35;;
63016;SDS011;50274;45.640;11.756;2023-01-24T04:15:06;4.13;;;1.10;;
63016;SDS011;50274;45.640;11.756;2023-01-24T04:17:32;3.35;;;1.10;;
63016;SDS011;50274;45.640;11.756;2023-01-24T04:19:58;4.23;;;1.20;;
63016;SDS011;50274;45.640;11.756;2023-01-24T04:22:24;3.63;;;1.10;;
63016;SDS011;50274;45.640;11.756;2023-01-24T04:24:50;3.70;;;0.90;;
63016;SDS011;50274;45.640;11.756;2023-01-24T04:27:16;3.63;;;1.10;;
63016;SDS011;50274;45.640;11.756;2023-01-24T04:29:42;3.72;;;1.10;;
63016;SDS011;50274;45.640;11.756;2023-01-24T04:32:07;3.85;;;0.93;;
63016;SDS011;50274;45.640;11.756;2023-01-24T04:34:33;3.37;;;0.90;;
63016;SDS011;50274;45.640;11.756;2023-01-24T04:36:59;3.75;;;1.08;;
63016;SDS011;50274;45.640;11.756;2023-01-24T04:39:25;4.03;;;1.00;;
63016;SDS011;50274;45.640;11.756;2023-01-24T04:41:59;3.97;;;1.20;;
63016;SDS011;50274;45.640;11.756;2023-01-24T04:44:25;4.15;;;1.08;;
63016;SDS011;50274;45.640;11.756;2023-01-24T04:46:51;3.53;;;1.00;;
63016;SDS011;50274;45.640;11.756;2023-01-24T04:49:17;3.40;;;0.90;;
63016;SDS011;50274;45.640;11.756;2023-01-24T04:51:43;3.10;;;0.90;;
63016;SDS011;50274;45.640;11.756;2023-01-24T04:54:11;3.20;;;0.90;;
63016;SDS011;50274;45.640;11.756;2023-01-24T04:56:37;3.90;;;1.10;;
63016;SDS011;50274;45.640;11.756;2023-01-24T04:59:03;5.38;;;1.85;;
63016;SDS011;50274;45.640;11.756;2023-01-24T05:01:30;4.88;;;1.50;;
63016;SDS011;50274;45.640;11.756;2023-01-24T05:03:56;3.80;;;1.27;;
63016;SDS011;50274;45.640;11.756;2023-01-24T05:06:24;3.85;;;1.20;;
63016;SDS011;50274;45.640;11.756;2023-01-24T05:08:55;4.07;;;1.33;;
63016;SDS011;50274;45.640;11.756;2023-01-24T05:11:21;4.47;;;1.48;;
63016;SDS011;50274;45.640;11.756;2023-01-24T05:13:48;3.75;;;1.20;;
63016;SDS011;50274;45.640;11.756;2023-01-24T05:16:14;6.03;;;1.65;;
63016;SDS011;50274;45.640;11.756;2023-01-24T05:18:40;4.20;;;1.10;;
63016;SDS011;50274;45.640;11.756;2023-01-24T05:21:11;4.03;;;1.00;;
63016;SDS011;50274;45.640;11.756;2023-01-24T05:23:38;4.40;;;1.10;;
63016;SDS011;50274;45.640;11.756;2023-01-24T05:26:04;4.13;;;1.10;;
63016;SDS011;50274;45.640;11.756;2023-01-24T05:28:30;3.33;;;0.97;;
63016;SDS011;50274;45.640;11.756;2023-01-24T05:30:57;3.45;;;1.08;;
63016;SDS011;50274;45.640;11.756;2023-01-24T05:33:28;3.60;;;1.08;;
63016;SDS011;50274;45.640;11.756;2023-01-24T05:36:01;3.78;;;1.20;;
63016;SDS011;50274;45.640;11.756;2023-01-24T05:38:28;4.13;;;1.10;;
63016;SDS011;50274;45.640;11.756;2023-01-24T05:40:58;4.63;;;1.00;;
63016;SDS011;50274;45.640;11.756;2023-01-24T05:43:25;4.13;;;1.35;;
63016;SDS011;50274;45.640;11.756;2023-01-24T05:45:51;4.18;;;1.20;;
63016;SDS011;50274;45.640;11.756;2023-01-24T05:48:21;3.30;;;1.00;;
63016;SDS011;50274;45.640;11.756;2023-01-24T05:50:46;5.00;;;1.30;;
63016;SDS011;50274;45.640;11.756;2023-01-24T05:53:12;4.22;;;1.00;;
63016;SDS011;50274;45.640;11.756;2023-01-24T05:55:38;4.57;;;1.40;;
63016;SDS011;50274;45.640;11.756;2023-01-24T05:58:04;3.45;;;0.98;;
63016;SDS011;50274;45.640;11.756;2023-01-24T06:00:30;3.72;;;1.20;;
63016;SDS011;50274;45.640;11.756;2023-01-24T06:03:00;4.33;;;1.70;;
63016;SDS011;50274;45.640;11.756;2023-01-24T06:05:27;4.50;;;1.50;;
63016;SDS011;50274;45.640;11.756;2023-01-24T06:07:53;7.88;;;3.25;;
63016;SDS011;50274;45.640;11.756;2023-01-24T06:10:18;12.40;;;6.20;;
63016;SDS011;50274;45.640;11.756;2023-01-24T06:12:44;11.73;;;5.35;;
63016;SDS011;50274;45.640;11.756;2023-01-24T06:15:10;11.63;;;5.10;;
63016;SDS011;50274;45.640;11.756;2023-01-24T06:17:36;9.27;;;4.37;;
63016;SDS011;50274;45.640;11.756;2023-01-24T06:20:02;9.40;;;4.50;;
63016;SDS011;50274;45.640;11.756;2023-01-24T06:22:30;9.32;;;4.10;;
63016;SDS011;50274;45.640;11.756;2023-01-24T06:25:05;8.50;;;3.40;;
63016;SDS011;50274;45.640;11.756;2023-01-24T06:27:35;6.25;;;2.80;;
63016;SDS011;50274;45.640;11.756;2023-01-24T06:30:01;7.20;;;3.25;;
63016;SDS011;50274;45.640;11.756;2023-01-24T06:32:33;6.15;;;2.42;;
63016;SDS011;50274;45.640;11.756;2023-01-24T06:38:08;6.17;;;2.60;;
63016;SDS011;50274;45.640;11.756;2023-01-24T06:40:27;5.80;;;2.42;;
63016;SDS011;50274;45.640;11.756;2023-01-24T06:42:53;5.47;;;2.65;;
63016;SDS011;50274;45.640;11.756;2023-01-24T06:45:19;5.13;;;2.28;;
63016;SDS011;50274;45.640;11.756;2023-01-24T06:47:46;6.30;;;2.80;;
63016;SDS011;50274;45.640;11.756;2023-01-24T06:50:13;5.13;;;2.40;;
63016;SDS011;50274;45.640;11.756;2023-01-24T06:52:43;5.13;;;2.28;;
63016;SDS011;50274;45.640;11.756;2023-01-24T06:55:10;6.60;;;2.92;;
63016;SDS011;50274;45.640;11.756;2023-01-24T06:57:36;5.47;;;2.57;;
63016;SDS011;50274;45.640;11.756;2023-01-24T07:00:03;5.30;;;2.60;;
63016;SDS011;50274;45.640;11.756;2023-01-24T07:02:29;5.47;;;2.35;;
63016;SDS011;50274;45.640;11.756;2023-01-24T07:04:55;5.53;;;2.50;;
63016;SDS011;50274;45.640;11.756;2023-01-24T07:07:21;5.53;;;2.60;;
63016;SDS011;50274;45.640;11.756;2023-01-24T07:09:47;6.00;;;3.10;;
63016;SDS011;50274;45.640;11.756;2023-01-24T07:12:13;7.20;;;3.40;;
63016;SDS011;50274;45.640;11.756;2023-01-24T07:14:38;6.45;;;3.17;;
63016;SDS011;50274;45.640;11.756;2023-01-24T07:17:04;7.47;;;3.50;;
63016;SDS011;50274;45.640;11.756;2023-01-24T07:19:30;8.15;;;4.15;;
63016;SDS011;50274;45.640;11.756;2023-01-24T07:21:56;6.85;;;3.63;;
63016;SDS011;50274;45.640;11.756;2023-01-24T07:24:27;7.45;;;3.55;;
63016;SDS011;50274;45.640;11.756;2023-01-24T07:26:54;8.23;;;3.95;;
63016;SDS011;50274;45.640;11.756;2023-01-24T07:29:21;9.30;;;4.30;;
63016;SDS011;50274;45.640;11.756;2023-01-24T07:31:48;8.88;;;4.13;;
63016;SDS011;50274;45.640;11.756;2023-01-24T07:34:17;13.27;;;6.07;;
63016;SDS011;50274;45.640;11.756;2023-01-24T07:36:44;9.88;;;5.63;;
63016;SDS011;50274;45.640;11.756;2023-01-24T07:41:37;13.23;;;6.53;;
63016;SDS011;50274;45.640;11.756;2023-01-24T07:44:09;11.73;;;6.53;;
63016;SDS011;50274;45.640;11.756;2023-01-24T07:46:35;13.70;;;6.32;;
63016;SDS011;50274;45.640;11.756;2023-01-24T07:49:01;13.90;;;7.28;;
63016;SDS011;50274;45.640;11.756;2023-01-24T07:51:27;14.82;;;8.02;;
63016;SDS011;50274;45.640;11.756;2023-01-24T07:53:53;13.37;;;6.73;;
63016;SDS011;50274;45.640;11.756;2023-01-24T07:56:19;16.95;;;8.10;;
63016;SDS011;50274;45.640;11.756;2023-01-24T07:58:45;16.77;;;9.05;;
63016;SDS011;50274;45.640;11.756;2023-01-24T08:01:18;16.93;;;8.93;;
63016;SDS011;50274;45.640;11.756;2023-01-24T08:03:44;14.43;;;7.90;;
63016;SDS011;50274;45.640;11.756;2023-01-24T08:06:11;14.60;;;8.50;;
63016;SDS011;50274;45.640;11.756;2023-01-24T08:08:37;16.23;;;8.90;;
63016;SDS011;50274;45.640;11.756;2023-01-24T08:11:03;17.83;;;8.77;;
63016;SDS011;50274;45.640;11.756;2023-01-24T08:13:29;14.68;;;7.80;;
63016;SDS011;50274;45.640;11.756;2023-01-24T08:15:55;14.93;;;7.97;;
63016;SDS011;50274;45.640;11.756;2023-01-24T08:18:20;13.23;;;7.30;;
63016;SDS011;50274;45.640;11.756;2023-01-24T08:20:46;16.17;;;7.22;;
63016;SDS011;50274;45.640;11.756;2023-01-24T08:23:13;15.32;;;6.97;;
63016;SDS011;50274;45.640;11.756;2023-01-24T08:25:39;14.03;;;7.17;;
63016;SDS011;50274;45.640;11.756;2023-01-24T08:28:05;13.50;;;6.90;;
63016;SDS011;50274;45.640;11.756;2023-01-24T08:30:31;11.20;;;6.17;;
63016;SDS011;50274;45.640;11.756;2023-01-24T08:33:03;13.47;;;6.53;;
63016;SDS011;50274;45.640;11.756;2023-01-24T08:35:30;12.85;;;6.93;;
63016;SDS011;50274;45.640;11.756;2023-01-24T08:37:57;14.15;;;6.93;;
63016;SDS011;50274;45.640;11.756;2023-01-24T08:40:23;14.20;;;7.57;;
63016;SDS011;50274;45.640;11.756;2023-01-24T08:42:49;13.30;;;7.30;;
63016;SDS011;50274;45.640;11.756;2023-01-24T08:45:15;12.88;;;7.15;;
63016;SDS011;50274;45.640;11.756;2023-01-24T08:47:41;13.85;;;7.03;;
63016;SDS011;50274;45.640;11.756;2023-01-24T08:50:07;12.57;;;5.80;;
63016;SDS011;50274;45.640;11.756;2023-01-24T08:52:34;11.68;;;6.25;;
63016;SDS011;50274;45.640;11.756;2023-01-24T08:55:00;8.35;;;4.80;;
63016;SDS011;50274;45.640;11.756;2023-01-24T08:57:26;8.55;;;4.30;;
63016;SDS011;50274;45.640;11.756;2023-01-24T08:59:51;7.50;;;3.90;;
63016;SDS011;50274;45.640;11.756;2023-01-24T09:02:18;7.97;;;3.92;;
63016;SDS011;50274;45.640;11.756;2023-01-24T09:04:44;7.30;;;3.45;;
63016;SDS011;50274;45.640;11.756;2023-01-24T09:07:10;6.77;;;3.30;;
63016;SDS011;50274;45.640;11.756;2023-01-24T09:09:37;8.63;;;3.88;;
63016;SDS011;50274;45.640;11.756;2023-01-24T09:12:02;5.22;;;2.63;;
63016;SDS011;50274;45.640;11.756;2023-01-24T09:14:28;6.18;;;2.85;;
63016;SDS011;50274;45.640;11.756;2023-01-24T09:16:54;7.63;;;2.23;;
63016;SDS011;50274;45.640;11.756;2023-01-24T09:19:20;7.03;;;1.92;;
63016;SDS011;50274;45.640;11.756;2023-01-24T09:21:46;5.68;;;2.35;;
63016;SDS011;50274;45.640;11.756;2023-01-24T09:24:17;5.63;;;2.30;;
63016;SDS011;50274;45.640;11.756;2023-01-24T09:26:43;6.82;;;2.20;;
63016;SDS011;50274;45.640;11.756;2023-01-24T09:29:10;6.05;;;2.38;;
63016;SDS011;50274;45.640;11.756;2023-01-24T09:31:36;6.50;;;2.30;;
63016;SDS011;50274;45.640;11.756;2023-01-24T09:34:02;6.40;;;2.70;;
63016;SDS011;50274;45.640;11.756;2023-01-24T09:36:28;6.60;;;2.60;;
63016;SDS011;50274;45.640;11.756;2023-01-24T09:38:54;5.35;;;2.25;;
63016;SDS011;50274;45.640;11.756;2023-01-24T09:44:00;5.83;;;2.50;;
63016;SDS011;50274;45.640;11.756;2023-01-24T09:46:30;8.18;;;2.72;;
63016;SDS011;50274;45.640;11.756;2023-01-24T09:48:59;8.40;;;3.35;;
63016;SDS011;50274;45.640;11.756;2023-01-24T09:51:30;7.32;;;2.85;;
63016;SDS011;50274;45.640;11.756;2023-01-24T09:54:00;6.88;;;3.33;;
63016;SDS011;50274;45.640;11.756;2023-01-24T10:01:58;4.05;;;1.70;;
63016;SDS011;50274;45.640;11.756;2023-01-24T10:04:34;5.40;;;2.05;;
63016;SDS011;50274;45.640;11.756;2023-01-24T10:15:51;4.38;;;1.58;;
63016;SDS011;50274;45.640;11.756;2023-01-24T10:23:53;6.20;;;1.63;;
63016;SDS011;50274;45.640;11.756;2023-01-24T10:26:27;4.75;;;1.33;;
63016;SDS011;50274;45.640;11.756;2023-01-24T10:28:56;4.63;;;1.40;;
63016;SDS011;50274;45.640;11.756;2023-01-24T10:31:37;4.50;;;1.38;;
63016;SDS011;50274;45.640;11.756;2023-01-24T10:34:29;4.80;;;1.40;;
63016;SDS011;50274;45.640;11.756;2023-01-24T10:37:00;4.10;;;1.30;;
63016;SDS011;50274;45.640;11.756;2023-01-24T10:39:45;3.92;;;1.30;;
63016;SDS011;50274;45.640;11.756;2023-01-24T10:42:16;5.07;;;1.90;;
63016;SDS011;50274;45.640;11.756;2023-01-24T10:44:47;5.15;;;1.80;;
63016;SDS011;50274;45.640;11.756;2023-01-24T10:49:59;3.97;;;1.17;;
63016;SDS011;50274;45.640;11.756;2023-01-24T10:52:26;3.50;;;1.08;;
63016;SDS011;50274;45.640;11.756;2023-01-24T10:55:00;3.80;;;1.13;;
63016;SDS011;50274;45.640;11.756;2023-01-24T11:02:54;5.23;;;1.87;;
63016;SDS011;50274;45.640;11.756;2023-01-24T11:05:22;4.07;;;1.48;;
63016;SDS011;50274;45.640;11.756;2023-01-24T11:07:53;4.88;;;1.33;;
63016;SDS011;50274;45.640;11.756;2023-01-24T11:10:28;4.72;;;1.80;;
63016;SDS011;50274;45.640;11.756;2023-01-24T11:13:00;6.22;;;1.70;;
63016;SDS011;50274;45.640;11.756;2023-01-24T11:15:32;5.57;;;1.43;;
63016;SDS011;50274;45.640;11.756;2023-01-24T11:18:04;4.93;;;1.42;;
63016;SDS011;50274;45.640;11.756;2023-01-24T11:20:33;4.40;;;1.50;;
63016;SDS011;50274;45.640;11.756;2023-01-24T11:23:10;10.10;;;1.90;;
63016;SDS011;50274;45.640;11.756;2023-01-24T11:25:51;6.38;;;1.75;;
63016;SDS011;50274;45.640;11.756;2023-01-24T11:28:25;5.17;;;2.30;;
63016;SDS011;50274;45.640;11.756;2023-01-24T11:30:52;4.85;;;2.15;;
63016;SDS011;50274;45.640;11.756;2023-01-24T11:36:02;4.95;;;2.15;;
63016;SDS011;50274;45.640;11.756;2023-01-24T11:38:48;5.30;;;1.90;;
63016;SDS011;50274;45.640;11.756;2023-01-24T11:58:28;5.72;;;2.30;;
63016;SDS011;50274;45.640;11.756;2023-01-24T12:09:20;7.37;;;1.97;;
63016;SDS011;50274;45.640;11.756;2023-01-24T12:11:58;4.47;;;1.75;;
63016;SDS011;50274;45.640;11.756;2023-01-24T12:14:49;3.85;;;1.30;;
63016;SDS011;50274;45.640;11.756;2023-01-24T12:20:17;4.10;;;1.23;;
63016;SDS011;50274;45.640;11.756;2023-01-24T12:22:57;3.90;;;1.33;;
63016;SDS011;50274;45.640;11.756;2023-01-24T12:25:43;4.40;;;1.15;;
63016;SDS011;50274;45.640;11.756;2023-01-24T12:28:12;3.97;;;1.30;;
63016;SDS011;50274;45.640;11.756;2023-01-24T12:30:43;3.88;;;1.33;;
63016;SDS011;50274;45.640;11.756;2023-01-24T12:35:47;4.33;;;1.10;;
63016;SDS011;50274;45.640;11.756;2023-01-24T12:38:33;3.75;;;1.27;;
63016;SDS011;50274;45.640;11.756;2023-01-24T12:41:46;3.95;;;1.40;;
63016;SDS011;50274;45.640;11.756;2023-01-24T13:00:03;4.05;;;1.20;;
63016;SDS011;50274;45.640;11.756;2023-01-24T13:02:42;3.50;;;1.10;;
63016;SDS011;50274;45.640;11.756;2023-01-24T13:13:14;5.07;;;1.60;;
63016;SDS011;50274;45.640;11.756;2023-01-24T13:21:55;4.95;;;1.10;;
63016;SDS011;50274;45.640;11.756;2023-01-24T13:32:30;3.42;;;1.10;;
63016;SDS011;50274;45.640;11.756;2023-01-24T13:35:10;3.05;;;0.90;;
63016;SDS011;50274;45.640;11.756;2023-01-24T13:37:53;4.45;;;1.13;;
63016;SDS011;50274;45.640;11.756;2023-01-24T13:40:33;3.30;;;1.10;;
63016;SDS011;50274;45.640;11.756;2023-01-24T13:43:02;3.93;;;1.20;;
63016;SDS011;50274;45.640;11.756;2023-01-24T13:47:58;4.47;;;1.52;;
63016;SDS011;50274;45.640;11.756;2023-01-24T13:50:26;15.13;;;7.63;;
63016;SDS011;50274;45.640;11.756;2023-01-24T13:52:56;15.13;;;7.25;;
63016;SDS011;50274;45.640;11.756;2023-01-24T14:05:46;8.07;;;3.50;;
63016;SDS011;50274;45.640;11.756;2023-01-24T14:08:31;8.63;;;3.47;;
63016;SDS011;50274;45.640;11.756;2023-01-24T14:19:17;5.03;;;1.90;;
63016;SDS011;50274;45.640;11.756;2023-01-24T14:24:52;5.05;;;1.95;;
63016;SDS011;50274;45.640;11.756;2023-01-24T14:27:48;5.18;;;1.80;;
63016;SDS011;50274;45.640;11.756;2023-01-24T14:33:13;5.83;;;1.60;;
63016;SDS011;50274;45.640;11.756;2023-01-24T14:36:07;5.10;;;1.80;;
63016;SDS011;50274;45.640;11.756;2023-01-24T14:38:44;7.15;;;2.20;;
63016;SDS011;50274;45.640;11.756;2023-01-24T14:41:16;6.65;;;2.10;;
63016;SDS011;50274;45.640;11.756;2023-01-24T14:43:47;4.93;;;2.00;;
63016;SDS011;50274;45.640;11.756;2023-01-24T14:46:20;5.55;;;2.10;;
63016;SDS011;50274;45.640;11.756;2023-01-24T14:48:49;5.55;;;1.90;;
63016;SDS011;50274;45.640;11.756;2023-01-24T14:51:21;5.00;;;1.70;;
63016;SDS011;50274;45.640;11.756;2023-01-24T14:53:49;4.70;;;1.60;;
63016;SDS011;50274;45.640;11.756;2023-01-24T14:56:17;5.13;;;2.07;;
63016;SDS011;50274;45.640;11.756;2023-01-24T14:58:44;4.93;;;1.70;;
63016;SDS011;50274;45.640;11.756;2023-01-24T15:04:26;6.93;;;2.00;;
63016;SDS011;50274;45.640;11.756;2023-01-24T15:09:52;5.03;;;1.40;;
63016;SDS011;50274;45.640;11.756;2023-01-24T15:12:33;4.97;;;2.05;;
63016;SDS011;50274;45.640;11.756;2023-01-24T15:15:01;5.78;;;2.17;;
63016;SDS011;50274;45.640;11.756;2023-01-24T15:17:29;4.68;;;2.00;;
63016;SDS011;50274;45.640;11.756;2023-01-24T15:19:58;5.47;;;2.17;;
63016;SDS011;50274;45.640;11.756;2023-01-24T15:22:31;6.53;;;2.10;;
63016;SDS011;50274;45.640;11.756;2023-01-24T15:25:02;7.18;;;2.80;;
63016;SDS011;50274;45.640;11.756;2023-01-24T15:32:49;6.97;;;3.40;;
63016;SDS011;50274;45.640;11.756;2023-01-24T15:35:30;7.30;;;3.20;;
63016;SDS011;50274;45.640;11.756;2023-01-24T15:38:26;9.32;;;3.70;;
63016;SDS011;50274;45.640;11.756;2023-01-24T15:43:53;6.38;;;2.80;;
63016;SDS011;50274;45.640;11.756;2023-01-24T15:49:37;7.80;;;2.90;;
63016;SDS011;50274;45.640;11.756;2023-01-24T15:54:38;5.97;;;2.75;;
63016;SDS011;50274;45.640;11.756;2023-01-24T15:57:15;6.57;;;3.10;;
63016;SDS011;50274;45.640;11.756;2023-01-24T15:59:45;7.25;;;3.28;;
63016;SDS011;50274;45.640;11.756;2023-01-24T16:02:13;7.53;;;3.70;;
63016;SDS011;50274;45.640;11.756;2023-01-24T16:04:39;9.95;;;3.42;;
63016;SDS011;50274;45.640;11.756;2023-01-24T16:07:06;10.85;;;3.90;;
63016;SDS011;50274;45.640;11.756;2023-01-24T16:09:32;9.75;;;3.60;;
63016;SDS011;50274;45.640;11.756;2023-01-24T16:11:59;8.52;;;3.75;;
63016;SDS011;50274;45.640;11.756;2023-01-24T16:14:26;8.67;;;3.80;;
63016;SDS011;50274;45.640;11.756;2023-01-24T16:16:54;9.63;;;3.40;;
63016;SDS011;50274;45.640;11.756;2023-01-24T16:19:22;9.80;;;3.22;;
63016;SDS011;50274;45.640;11.756;2023-01-24T16:21:48;7.28;;;3.60;;
63016;SDS011;50274;45.640;11.756;2023-01-24T16:24:15;6.47;;;2.92;;
63016;SDS011;50274;45.640;11.756;2023-01-24T16:26:48;7.83;;;3.70;;
63016;SDS011;50274;45.640;11.756;2023-01-24T16:29:16;6.47;;;3.05;;
63016;SDS011;50274;45.640;11.756;2023-01-24T16:31:46;6.30;;;3.20;;
63016;SDS011;50274;45.640;11.756;2023-01-24T16:34:12;8.15;;;4.10;;
63016;SDS011;50274;45.640;11.756;2023-01-24T16:36:38;7.68;;;3.97;;
63016;SDS011;50274;45.640;11.756;2023-01-24T16:39:05;8.90;;;4.03;;
63016;SDS011;50274;45.640;11.756;2023-01-24T16:41:32;9.52;;;4.15;;
63016;SDS011;50274;45.640;11.756;2023-01-24T16:43:58;11.05;;;4.65;;
63016;SDS011;50274;45.640;11.756;2023-01-24T16:46:24;10.32;;;4.95;;
63016;SDS011;50274;45.640;11.756;2023-01-24T16:48:50;10.03;;;5.10;;
63016;SDS011;50274;45.640;11.756;2023-01-24T16:51:17;11.93;;;5.15;;
63016;SDS011;50274;45.640;11.756;2023-01-24T16:53:44;10.55;;;4.80;;
63016;SDS011;50274;45.640;11.756;2023-01-24T16:56:10;10.27;;;5.20;;
63016;SDS011;50274;45.640;11.756;2023-01-24T16:58:35;11.43;;;5.63;;
63016;SDS011;50274;45.640;11.756;2023-01-24T17:01:10;12.55;;;7.00;;
63016;SDS011;50274;45.640;11.756;2023-01-24T17:03:37;12.25;;;6.20;;
63016;SDS011;50274;45.640;11.756;2023-01-24T17:06:06;11.55;;;5.85;;
63016;SDS011;50274;45.640;11.756;2023-01-24T17:08:33;16.58;;;7.55;;
63016;SDS011;50274;45.640;11.756;2023-01-24T17:11:06;17.60;;;8.00;;
63016;SDS011;50274;45.640;11.756;2023-01-24T17:13:33;17.20;;;8.82;;
63016;SDS011;50274;45.640;11.756;2023-01-24T17:16:06;19.05;;;8.95;;
63016;SDS011;50274;45.640;11.756;2023-01-24T17:18:34;21.00;;;10.57;;
63016;SDS011;50274;45.640;11.756;2023-01-24T17:21:05;29.42;;;13.77;;
63016;SDS011;50274;45.640;11.756;2023-01-24T17:23:41;23.53;;;13.43;;
63016;SDS011;50274;45.640;11.756;2023-01-24T17:26:09;25.48;;;14.38;;
63016;SDS011;50274;45.640;11.756;2023-01-24T17:28:40;20.35;;;12.80;;
63016;SDS011;50274;45.640;11.756;2023-01-24T17:31:11;21.50;;;12.40;;